sensor_id;sensor_type;location;lat;lon;timestamp;P1;P2;P0
55076;PMS7003;40971;44.702;11.030;2023-04-15T00:09:20;1.50;1.50;1.00
55076;PMS7003;40971;44.702;11.030;2023-04-15T00:19:40;4.00;4.00;3.00
55076;PMS7003;40971;44.702;11.030;2023-04-15T00:29:42;3.00;3.00;3.00
55076;PMS7003;40971;44.702;11.030;2023-04-15T00:39:43;3.00;3.00;1.50
55076;PMS7003;40971;44.702;11.030;2023-04-15T00:49:44;4.00;4.00;3.00
55076;PMS7003;40971;44.702;11.030;2023-04-15T00:59:47;2.50;2.50;1.50
55076;PMS7003;40971;44.702;11.030;2023-04-15T01:09:49;7.00;5.50;3.25
55076;PMS7003;40971;44.702;11.030;2023-04-15T01:19:51;4.00;4.00;3.00
55076;PMS7003;40971;44.702;11.030;2023-04-15T01:29:53;4.00;4.00;3.00
55076;PMS7003;40971;44.702;11.030;2023-04-15T01:39:54;6.50;3.00;3.00
55076;PMS7003;40971;44.702;11.030;2023-04-15T01:49:57;3.50;3.00;3.00
55076;PMS7003;40971;44.702;11.030;2023-04-15T02:00:17;3.00;3.00;2.33
55076;PMS7003;40971;44.702;11.030;2023-04-15T02:10:18;4.00;4.00;4.00
55076;PMS7003;40971;44.702;11.030;2023-04-15T02:20:20;3.50;3.50;3.00
55076;PMS7003;40971;44.702;11.030;2023-04-15T02:30:40;6.00;4.00;3.50
55076;PMS7003;40971;44.702;11.030;2023-04-15T02:40:41;3.00;2.33;2.33
55076;PMS7003;40971;44.702;11.030;2023-04-15T02:50:42;9.00;6.00;3.50
55076;PMS7003;40971;44.702;11.030;2023-04-15T03:00:43;6.00;6.00;4.00
55076;PMS7003;40971;44.702;11.030;2023-04-15T03:10:45;5.33;5.33;3.67
55076;PMS7003;40971;44.702;11.030;2023-04-15T03:20:47;6.25;4.50;3.75
55076;PMS7003;40971;44.702;11.030;2023-04-15T03:30:48;6.67;6.00;5.33
55076;PMS7003;40971;44.702;11.030;2023-04-15T03:40:53;6.00;5.00;3.50
55076;PMS7003;40971;44.702;11.030;2023-04-15T03:50:54;6.75;4.50;4.00
55076;PMS7003;40971;44.702;11.030;2023-04-15T04:00:56;5.50;4.00;4.00
55076;PMS7003;40971;44.702;11.030;2023-04-15T04:10:57;6.25;3.75;3.00
55076;PMS7003;40971;44.702;11.030;2023-04-15T04:20:59;6.00;4.50;4.00
55076;PMS7003;40971;44.702;11.030;2023-04-15T04:31:01;8.33;8.33;7.00
55076;PMS7003;40971;44.702;11.030;2023-04-15T04:41:03;6.00;6.00;3.75
55076;PMS7003;40971;44.702;11.030;2023-04-15T04:51:04;6.25;6.25;4.00
55076;PMS7003;40971;44.702;11.030;2023-04-15T05:01:05;6.00;6.00;4.00
55076;PMS7003;40971;44.702;11.030;2023-04-15T05:11:06;6.75;6.75;6.00
55076;PMS7003;40971;44.702;11.030;2023-04-15T05:21:09;6.00;5.50;4.00
55076;PMS7003;40971;44.702;11.030;2023-04-15T05:31:10;9.00;9.00;7.00
55076;PMS7003;40971;44.702;11.030;2023-04-15T05:41:11;14.00;14.00;10.00
55076;PMS7003;40971;44.702;11.030;2023-04-15T05:51:15;17.00;15.50;12.00
55076;PMS7003;40971;44.702;11.030;2023-04-15T06:01:17;24.00;24.00;18.33
55076;PMS7003;40971;44.702;11.030;2023-04-15T06:11:21;34.88;29.00;22.13
55076;PMS7003;40971;44.702;11.030;2023-04-15T06:21:24;34.00;32.20;24.00
55076;PMS7003;40971;44.702;11.030;2023-04-15T06:31:26;32.20;32.00;24.20
55076;PMS7003;40971;44.702;11.030;2023-04-15T06:41:29;28.60;28.60;21.80
55076;PMS7003;40971;44.702;11.030;2023-04-15T06:51:30;27.33;24.67;19.00
55076;PMS7003;40971;44.702;11.030;2023-04-15T07:01:33;27.00;24.40;19.00
55076;PMS7003;40971;44.702;11.030;2023-04-15T07:11:34;27.00;25.00;19.67
55076;PMS7003;40971;44.702;11.030;2023-04-15T07:21:36;26.00;24.50;19.00
55076;PMS7003;40971;44.702;11.030;2023-04-15T07:31:39;27.40;27.40;19.20
55076;PMS7003;40971;44.702;11.030;2023-04-15T07:41:42;22.60;19.80;14.00
55076;PMS7003;40971;44.702;11.030;2023-04-15T07:51:44;22.60;21.40;15.80
55076;PMS7003;40971;44.702;11.030;2023-04-15T08:01:46;21.67;20.67;18.00
55076;PMS7003;40971;44.702;11.030;2023-04-15T08:11:47;16.67;16.67;13.67
55076;PMS7003;40971;44.702;11.030;2023-04-15T08:21:53;17.43;17.43;12.86
55076;PMS7003;40971;44.702;11.030;2023-04-15T08:31:54;21.67;18.67;15.33
55076;PMS7003;40971;44.702;11.030;2023-04-15T08:42:02;22.00;22.00;17.40
55076;PMS7003;40971;44.702;11.030;2023-04-15T08:52:07;14.00;14.00;12.33
55076;PMS7003;40971;44.702;11.030;2023-04-15T09:02:10;12.60;12.60;9.20
55076;PMS7003;40971;44.702;11.030;2023-04-15T09:12:12;16.00;15.33;13.67
55076;PMS7003;40971;44.702;11.030;2023-04-15T09:22:14;18.40;18.40;11.00
55076;PMS7003;40971;44.702;11.030;2023-04-15T09:32:17;14.00;14.00;10.33
55076;PMS7003;40971;44.702;11.030;2023-04-15T09:42:20;9.00;9.00;7.17
55076;PMS7003;40971;44.702;11.030;2023-04-15T09:52:26;8.83;8.50;7.50
55076;PMS7003;40971;44.702;11.030;2023-04-15T10:02:29;7.33;7.33;7.00
55076;PMS7003;40971;44.702;11.030;2023-04-15T10:12:33;8.67;8.67;6.00
55076;PMS7003;40971;44.702;11.030;2023-04-15T10:22:37;8.00;8.00;6.50
55076;PMS7003;40971;44.702;11.030;2023-04-15T10:32:40;11.33;8.67;7.00
55076;PMS7003;40971;44.702;11.030;2023-04-15T10:42:43;6.50;6.50;4.00
55076;PMS7003;40971;44.702;11.030;2023-04-15T10:52:48;8.20;8.20;6.80
55076;PMS7003;40971;44.702;11.030;2023-04-15T11:02:53;10.67;10.67;8.00
55076;PMS7003;40971;44.702;11.030;2023-04-15T11:13:02;9.67;8.83;7.17
55076;PMS7003;40971;44.702;11.030;2023-04-15T11:23:05;11.33;11.33;8.33
55076;PMS7003;40971;44.702;11.030;2023-04-15T11:33:09;14.86;14.29;11.00
55076;PMS7003;40971;44.702;11.030;2023-04-15T11:43:17;10.50;10.50;7.33
55076;PMS7003;40971;44.702;11.030;2023-04-15T11:53:35;12.43;12.14;9.43
55076;PMS7003;40971;44.702;11.030;2023-04-15T12:03:52;16.67;14.00;10.00
55076;PMS7003;40971;44.702;11.030;2023-04-15T12:24:05;14.00;14.00;12.00
55076;PMS7003;40971;44.702;11.030;2023-04-15T12:34:09;14.00;14.00;10.00
55076;PMS7003;40971;44.702;11.030;2023-04-15T12:44:10;18.00;16.33;14.00
55076;PMS7003;40971;44.702;11.030;2023-04-15T12:54:12;13.33;12.00;9.67
55076;PMS7003;40971;44.702;11.030;2023-04-15T13:04:13;9.00;9.00;8.00
55076;PMS7003;40971;44.702;11.030;2023-04-15T13:14:17;13.33;12.67;8.50
55076;PMS7003;40971;44.702;11.030;2023-04-15T13:24:19;12.00;10.80;7.00
55076;PMS7003;40971;44.702;11.030;2023-04-15T13:34:23;8.00;8.00;6.83
55076;PMS7003;40971;44.702;11.030;2023-04-15T13:44:24;11.00;8.50;6.00
55076;PMS7003;40971;44.702;11.030;2023-04-15T13:54:25;5.00;5.00;4.00
55076;PMS7003;40971;44.702;11.030;2023-04-15T14:04:29;5.00;5.00;4.00
55076;PMS7003;40971;44.702;11.030;2023-04-15T14:14:31;6.00;6.00;3.50
55076;PMS7003;40971;44.702;11.030;2023-04-15T14:24:34;14.00;14.00;10.86
55076;PMS7003;40971;44.702;11.030;2023-04-15T14:34:37;13.00;12.00;9.00
55076;PMS7003;40971;44.702;11.030;2023-04-15T14:44:37;8.00;7.00;4.00
55076;PMS7003;40971;44.702;11.030;2023-04-15T14:54:40;10.60;9.00;8.00
55076;PMS7003;40971;44.702;11.030;2023-04-15T15:04:42;8.00;7.00;5.20
55076;PMS7003;40971;44.702;11.030;2023-04-15T15:14:43;14.00;14.00;11.00
55076;PMS7003;40971;44.702;11.030;2023-04-15T15:24:46;10.50;10.50;8.00
55076;PMS7003;40971;44.702;11.030;2023-04-15T15:34:49;11.17;9.33;8.00
55076;PMS7003;40971;44.702;11.030;2023-04-15T15:44:51;11.00;11.00;7.40
55076;PMS7003;40971;44.702;11.030;2023-04-15T15:54:53;11.00;9.00;7.50
55076;PMS7003;40971;44.702;11.030;2023-04-15T16:04:55;10.80;10.00;7.60
55076;PMS7003;40971;44.702;11.030;2023-04-15T16:14:57;13.80;10.40;8.60
55076;PMS7003;40971;44.702;11.030;2023-04-15T16:24:58;10.00;10.00;8.67
55076;PMS7003;40971;44.702;11.030;2023-04-15T16:35:02;11.17;11.17;9.00
55076;PMS7003;40971;44.702;11.030;2023-04-15T16:45:03;9.00;9.00;6.50
55076;PMS7003;40971;44.702;11.030;2023-04-15T16:55:06;12.00;10.83;7.17
55076;PMS7003;40971;44.702;11.030;2023-04-15T17:05:09;10.67;10.67;8.33
55076;PMS7003;40971;44.702;11.030;2023-04-15T17:15:13;11.33;11.33;9.17
55076;PMS7003;40971;44.702;11.030;2023-04-15T17:25:14;7.67;7.67;6.00
55076;PMS7003;40971;44.702;11.030;2023-04-15T17:35:15;8.00;6.00;4.00
55076;PMS7003;40971;44.702;11.030;2023-04-15T17:45:16;5.50;5.50;4.50
55076;PMS7003;40971;44.702;11.030;2023-04-15T17:55:18;5.00;5.00;5.00
55076;PMS7003;40971;44.702;11.030;2023-04-15T18:05:19;3.00;3.00;2.00
55076;PMS7003;40971;44.702;11.030;2023-04-15T18:15:20;5.00;5.00;5.00
55076;PMS7003;40971;44.702;11.030;2023-04-15T18:25:23;14.00;12.00;9.80
55076;PMS7003;40971;44.702;11.030;2023-04-15T18:35:25;15.00;13.60;11.60
55076;PMS7003;40971;44.702;11.030;2023-04-15T18:45:31;10.17;9.33;8.17
55076;PMS7003;40971;44.702;11.030;2023-04-15T18:55:34;15.57;14.43;11.43
55076;PMS7003;40971;44.702;11.030;2023-04-15T19:05:37;18.57;18.57;16.43
55076;PMS7003;40971;44.702;11.030;2023-04-15T19:15:42;12.86;11.14;11.00
55076;PMS7003;40971;44.702;11.030;2023-04-15T19:25:44;13.67;13.00;10.00
55076;PMS7003;40971;44.702;11.030;2023-04-15T19:35:46;13.33;13.33;10.33
55076;PMS7003;40971;44.702;11.030;2023-04-15T19:45:49;9.00;9.00;8.00
55076;PMS7003;40971;44.702;11.030;2023-04-15T19:55:52;10.50;10.50;8.00
55076;PMS7003;40971;44.702;11.030;2023-04-15T20:05:53;13.00;10.67;8.00
55076;PMS7003;40971;44.702;11.030;2023-04-15T20:15:54;12.00;12.00;10.00
55076;PMS7003;40971;44.702;11.030;2023-04-15T20:25:55;7.00;7.00;4.00
55076;PMS7003;40971;44.702;11.030;2023-04-15T20:35:57;14.00;12.50;7.50
55076;PMS7003;40971;44.702;11.030;2023-04-15T20:45:59;7.00;7.00;6.00
55076;PMS7003;40971;44.702;11.030;2023-04-15T20:56:00;3.75;3.75;3.25
55076;PMS7003;40971;44.702;11.030;2023-04-15T21:06:01;6.50;6.50;6.00
55076;PMS7003;40971;44.702;11.030;2023-04-15T21:16:08;6.50;6.00;4.00
55076;PMS7003;40971;44.702;11.030;2023-04-15T21:26:09;8.33;6.33;5.33
55076;PMS7003;40971;44.702;11.030;2023-04-15T21:36:10;9.00;7.00;6.00
55076;PMS7003;40971;44.702;11.030;2023-04-15T21:46:12;6.00;6.00;4.00
55076;PMS7003;40971;44.702;11.030;2023-04-15T21:56:13;9.33;9.33;7.00
55076;PMS7003;40971;44.702;11.030;2023-04-15T22:06:14;9.50;9.50;9.00
55076;PMS7003;40971;44.702;11.030;2023-04-15T22:16:15;7.67;7.00;6.00
55076;PMS7003;40971;44.702;11.030;2023-04-15T22:26:16;13.00;12.00;9.00
55076;PMS7003;40971;44.702;11.030;2023-04-15T22:36:17;10.00;10.00;9.00
55076;PMS7003;40971;44.702;11.030;2023-04-15T22:46:18;12.00;12.00;10.00
55076;PMS7003;40971;44.702;11.030;2023-04-15T22:56:20;10.67;9.00;9.00
55076;PMS7003;40971;44.702;11.030;2023-04-15T23:06:22;12.00;12.00;10.00
55076;PMS7003;40971;44.702;11.030;2023-04-15T23:16:23;12.00;12.00;10.00
55076;PMS7003;40971;44.702;11.030;2023-04-15T23:26:25;15.33;14.33;10.00
55076;PMS7003;40971;44.702;11.030;2023-04-15T23:36:26;12.00;10.00;7.00
55076;PMS7003;40971;44.702;11.030;2023-04-15T23:46:28;15.50;15.00;12.00
55076;PMS7003;40971;44.702;11.030;2023-04-15T23:56:29;10.00;10.00;9.00
